createdAt,value
2018-02-06T00:01:30.700Z,10.87
2018-02-06T00:03:58.171Z,11.23
2018-02-06T00:06:25.648Z,10.33
2018-02-06T00:08:53.132Z,12.30
2018-02-06T00:11:20.974Z,11.67
2018-02-06T00:13:48.546Z,11.40
2018-02-06T00:16:16.024Z,11.17
2018-02-06T00:18:43.509Z,12.23
2018-02-06T00:21:10.984Z,12.07
2018-02-06T00:23:38.465Z,12.20
2018-02-06T00:26:05.959Z,11.67
2018-02-06T00:28:33.449Z,12.43
2018-02-06T00:31:00.926Z,13.77
2018-02-06T00:33:28.410Z,10.23
2018-02-06T00:35:55.905Z,13.47
2018-02-06T00:38:23.405Z,12.63
2018-02-06T00:40:50.861Z,11.83
2018-02-06T00:43:18.335Z,12.83
2018-02-06T00:45:45.812Z,12.87
2018-02-06T00:48:13.321Z,12.47
2018-02-06T00:50:40.797Z,14.47
2018-02-06T00:53:08.375Z,14.00
2018-02-06T00:55:35.965Z,12.40
2018-02-06T00:58:03.429Z,12.70
2018-02-06T01:00:30.905Z,14.83
2018-02-06T01:02:58.434Z,13.10
2018-02-06T01:05:25.914Z,13.77
2018-02-06T01:07:53.488Z,13.37
2018-02-06T01:10:20.973Z,12.87
2018-02-06T01:12:48.440Z,13.90
2018-02-06T01:15:15.992Z,13.73
2018-02-06T01:17:43.476Z,12.33
2018-02-06T01:20:11.040Z,15.13
2018-02-06T01:22:38.613Z,13.50
2018-02-06T01:25:06.100Z,13.10
2018-02-06T01:27:33.663Z,13.10
2018-02-06T01:30:01.232Z,12.57
2018-02-06T01:32:36.220Z,13.97
2018-02-06T01:35:03.740Z,14.10
2018-02-06T01:37:31.214Z,16.17
2018-02-06T01:39:58.808Z,15.10
2018-02-06T04:39:28.779Z,17.70
2018-02-06T04:41:56.255Z,20.10
2018-02-06T04:44:23.720Z,20.13
2018-02-06T04:46:51.189Z,19.30
2018-02-06T04:49:18.645Z,19.43
2018-02-06T04:51:46.127Z,21.13
2018-02-06T04:54:13.572Z,17.07
2018-02-06T04:56:41.028Z,17.33
2018-02-06T04:59:08.511Z,18.43
2018-02-06T05:01:36.032Z,19.40
2018-02-06T05:04:03.514Z,19.93
2018-02-06T05:06:30.971Z,18.33
2018-02-06T05:08:58.444Z,17.57
2018-02-06T05:11:25.991Z,19.53
2018-02-06T05:13:53.473Z,19.87
2018-02-06T05:16:20.954Z,21.30
2018-02-06T05:18:48.488Z,18.87
2018-02-06T05:21:15.984Z,19.00
2018-02-06T05:23:43.439Z,19.43
2018-02-06T05:26:10.917Z,21.07
2018-02-06T05:28:38.393Z,21.07
2018-02-06T05:31:05.944Z,19.87
2018-02-06T05:33:33.440Z,20.07
2018-02-06T05:36:00.963Z,21.50
2018-02-06T05:38:28.463Z,21.17
2018-02-06T05:40:55.991Z,18.57
2018-02-06T05:43:23.460Z,21.00
2018-02-06T05:45:50.921Z,20.27
2018-02-06T05:48:18.417Z,26.50
2018-02-06T05:50:45.893Z,22.90
2018-02-06T05:53:13.382Z,20.50
2018-02-06T05:55:40.881Z,24.40
2018-02-06T05:58:08.372Z,19.43
2018-02-06T06:00:35.896Z,22.60
2018-02-06T06:03:03.349Z,18.60
2018-02-06T06:05:30.840Z,19.13
2018-02-06T06:07:58.308Z,18.57
2018-02-06T06:10:26.023Z,19.90
2018-02-06T06:12:53.596Z,19.47
2018-02-06T06:15:21.073Z,22.10
2018-02-06T06:17:48.594Z,20.73
2018-02-06T06:20:16.113Z,18.87
2018-02-06T06:22:43.608Z,21.70
2018-02-06T06:25:11.097Z,21.80
2018-02-06T06:27:38.564Z,20.33
2018-02-06T06:30:06.161Z,19.50
2018-02-06T06:32:33.623Z,21.37
2018-02-06T06:35:01.140Z,20.27
2018-02-06T06:37:28.605Z,20.70
2018-02-06T06:39:56.080Z,22.03
2018-02-06T06:42:23.548Z,20.93
2018-02-06T06:44:51.072Z,24.00
2018-02-06T06:47:18.556Z,20.77
2018-02-06T06:49:46.061Z,21.37
2018-02-06T06:52:13.600Z,22.17
2018-02-06T06:54:41.160Z,21.57
2018-02-06T06:57:08.774Z,20.93
2018-02-06T06:59:37.105Z,19.67
2018-02-06T07:02:04.642Z,21.30
2018-02-06T07:04:32.126Z,19.30
2018-02-06T07:06:59.618Z,18.77
2018-02-06T07:09:27.215Z,18.30
2018-02-06T07:11:54.676Z,19.67
2018-02-06T07:14:22.231Z,17.50
2018-02-06T07:16:49.689Z,16.50
2018-02-06T07:19:17.187Z,15.17
2018-02-06T07:21:44.672Z,14.90
2018-02-06T07:24:12.216Z,14.10
2018-02-06T07:26:39.675Z,16.37
2018-02-06T07:29:07.164Z,16.53
2018-02-06T07:31:34.632Z,17.00
2018-02-06T07:34:02.097Z,15.70
2018-02-06T07:36:29.573Z,15.17
2018-02-06T07:38:57.033Z,14.40
2018-02-06T07:41:24.502Z,15.33
2018-02-06T07:43:51.954Z,14.70
2018-02-06T07:46:19.419Z,14.57
2018-02-06T07:48:46.885Z,15.70
2018-02-06T07:51:14.348Z,15.30
2018-02-06T07:53:41.845Z,15.33
2018-02-06T07:56:09.388Z,14.90
2018-02-06T07:58:36.831Z,18.90
2018-02-06T08:01:04.326Z,17.07
2018-02-06T08:03:31.828Z,15.97
2018-02-06T08:05:59.304Z,16.90
2018-02-06T08:08:26.872Z,16.53
2018-02-06T08:10:54.361Z,15.70
2018-02-06T08:13:21.819Z,18.70
2018-02-06T08:15:49.298Z,17.47
2018-02-06T08:18:16.762Z,17.93
2018-02-06T08:20:44.239Z,16.50
2018-02-06T08:23:11.719Z,17.03
2018-02-06T08:25:39.264Z,16.93
2018-02-06T08:28:06.732Z,17.03
2018-02-06T08:30:34.202Z,19.20
2018-02-06T08:33:01.684Z,17.97
2018-02-06T08:35:29.176Z,15.83
2018-02-06T08:37:56.705Z,15.90
2018-02-06T08:40:24.168Z,16.97
2018-02-06T08:42:51.666Z,16.63
2018-02-06T08:45:19.230Z,16.60
2018-02-06T08:47:46.807Z,17.47
2018-02-06T08:50:14.372Z,16.20
2018-02-06T08:52:41.846Z,17.30
2018-02-06T08:55:09.303Z,18.03
2018-02-06T08:57:36.784Z,18.77
2018-02-06T09:00:04.255Z,17.67
2018-02-06T09:02:31.732Z,18.57
2018-02-06T09:04:59.305Z,18.10
2018-02-06T09:07:26.831Z,17.27
2018-02-06T09:09:54.298Z,17.27
2018-02-06T09:12:21.749Z,18.83
2018-02-06T09:14:49.276Z,16.57
2018-02-06T09:17:16.745Z,19.63
2018-02-06T09:19:44.237Z,16.90
2018-02-06T09:22:11.708Z,18.97
2018-02-06T09:24:39.185Z,16.73
2018-02-06T09:27:06.667Z,16.70
2018-02-06T09:29:34.202Z,19.43
2018-02-06T09:32:01.772Z,19.63
2018-02-06T09:34:29.264Z,15.93
2018-02-06T09:36:56.721Z,21.10
2018-02-06T09:39:24.179Z,18.53
2018-02-06T09:41:51.672Z,18.30
2018-02-06T09:44:19.589Z,16.23
2018-02-06T09:46:47.066Z,17.30
2018-02-06T09:49:14.523Z,16.27
2018-02-06T09:51:42.024Z,16.07
2018-02-06T09:54:09.510Z,15.87
2018-02-06T09:56:36.982Z,17.27
2018-02-06T09:59:04.553Z,14.47
2018-02-06T10:01:32.125Z,14.93
2018-02-06T10:03:59.575Z,16.53
2018-02-06T10:06:27.040Z,15.43
2018-02-06T10:08:54.510Z,15.10
2018-02-06T10:11:21.972Z,14.80
2018-02-06T10:13:49.474Z,16.73
2018-02-06T10:16:16.953Z,16.30
2018-02-06T10:18:44.424Z,16.23
2018-02-06T10:21:11.901Z,14.97
2018-02-06T10:23:39.663Z,14.67
2018-02-06T10:26:07.145Z,15.83
2018-02-06T10:28:34.663Z,16.80
2018-02-06T10:31:02.137Z,14.33
2018-02-06T10:33:29.620Z,13.60
2018-02-06T10:35:57.119Z,17.50
2018-02-06T10:38:24.588Z,14.73
2018-02-06T10:40:52.145Z,13.30
2018-02-06T10:43:19.616Z,13.37
2018-02-06T10:45:47.457Z,12.30
2018-02-06T10:48:14.917Z,12.73
2018-02-06T10:50:42.370Z,13.27
2018-02-06T10:53:09.848Z,13.50
2018-02-06T10:55:37.326Z,14.77
2018-02-06T10:58:04.805Z,14.53
2018-02-06T11:00:32.268Z,14.57
2018-02-06T11:02:59.768Z,15.10
2018-02-06T11:05:27.260Z,16.63
2018-02-06T11:07:54.717Z,13.60
2018-02-06T11:10:22.199Z,16.10
2018-02-06T11:12:49.650Z,17.83
2018-02-06T11:15:17.135Z,16.20
2018-02-06T11:17:44.705Z,16.43
2018-02-06T11:20:12.159Z,16.20
2018-02-06T11:22:39.758Z,16.43
2018-02-06T11:25:07.272Z,18.57
2018-02-06T11:27:34.750Z,17.60
2018-02-06T11:30:02.370Z,18.73
2018-02-06T11:32:29.853Z,17.73
2018-02-06T11:34:57.407Z,17.93
2018-02-06T11:37:24.877Z,18.27
2018-02-06T11:39:52.356Z,18.77
2018-02-06T11:42:19.931Z,19.73
2018-02-06T11:44:47.396Z,18.93
2018-02-06T11:47:14.962Z,17.47
2018-02-06T11:49:42.465Z,18.07
2018-02-06T11:52:09.928Z,19.87
2018-02-06T11:54:37.404Z,19.30
2018-02-06T11:57:04.916Z,19.63
2018-02-06T11:59:32.364Z,19.07
2018-02-06T12:01:59.881Z,18.03
2018-02-06T12:04:27.375Z,19.00
2018-02-06T12:06:54.930Z,20.53
2018-02-06T12:09:22.508Z,17.13
2018-02-06T12:11:49.979Z,19.17
2018-02-06T12:14:17.469Z,19.40
2018-02-06T12:16:44.933Z,20.23
2018-02-06T12:19:12.421Z,19.57
2018-02-06T12:21:39.881Z,20.17
2018-02-06T12:24:07.368Z,22.97
2018-02-06T12:26:34.836Z,20.13
2018-02-06T12:29:02.301Z,23.47
2018-02-06T12:31:29.834Z,22.90
2018-02-06T12:33:57.410Z,21.67
2018-02-06T12:36:25.162Z,21.43
2018-02-06T12:38:52.683Z,19.63
2018-02-06T12:41:20.159Z,18.67
2018-02-06T12:43:47.619Z,17.53
2018-02-06T12:46:15.098Z,19.47
2018-02-06T12:48:42.652Z,20.93
2018-02-06T12:51:10.125Z,19.20
2018-02-06T12:53:37.658Z,18.80
2018-02-06T12:56:05.532Z,18.67
2018-02-06T12:58:33.043Z,17.53
2018-02-06T13:01:00.595Z,18.90
2018-02-06T13:03:28.079Z,18.30
2018-02-06T13:05:55.638Z,19.67
2018-02-06T13:08:23.134Z,18.37
2018-02-06T13:10:50.610Z,19.77
2018-02-06T13:13:18.169Z,17.20
2018-02-06T13:15:45.736Z,19.27
2018-02-06T13:18:13.297Z,17.13
2018-02-06T13:20:40.754Z,17.87
2018-02-06T13:23:08.235Z,17.40
2018-02-06T13:25:35.704Z,17.77
2018-02-06T13:28:03.175Z,18.40
2018-02-06T13:30:30.660Z,18.10
2018-02-06T13:32:58.211Z,19.70
2018-02-06T13:35:25.786Z,19.20
2018-02-06T13:37:53.251Z,18.23
2018-02-06T13:40:20.821Z,17.37
2018-02-06T13:42:48.277Z,19.30
2018-02-06T13:45:15.857Z,18.47
2018-02-06T13:47:43.329Z,18.30
2018-02-06T13:50:10.807Z,20.70
2018-02-06T13:52:38.311Z,17.80
2018-02-06T13:55:05.874Z,18.43
2018-02-06T14:00:27.169Z,19.13
2018-02-06T14:02:54.653Z,17.53
2018-02-06T14:05:22.113Z,17.83
2018-02-06T14:07:49.591Z,17.73
2018-02-06T14:10:17.043Z,19.50
2018-02-06T14:12:44.569Z,16.30
2018-02-06T14:15:12.014Z,17.87
2018-02-06T14:17:39.492Z,18.47
2018-02-06T14:20:06.942Z,18.37
2018-02-06T14:22:34.392Z,17.63
2018-02-06T14:25:01.856Z,17.47
2018-02-06T14:27:29.302Z,17.47
2018-02-06T14:29:56.783Z,15.70
2018-02-06T14:32:24.233Z,16.80
2018-02-06T14:34:51.709Z,15.43
2018-02-06T14:37:20.476Z,14.83
2018-02-06T14:39:47.947Z,16.37
2018-02-06T14:42:15.400Z,16.30
2018-02-06T14:44:42.863Z,16.13
2018-02-06T14:47:10.323Z,14.50
2018-02-06T14:49:37.773Z,16.07
2018-02-06T14:52:05.246Z,16.50
2018-02-06T14:54:32.703Z,16.27
2018-02-06T14:57:00.155Z,16.63
2018-02-06T14:59:27.636Z,18.83
2018-02-06T15:01:55.103Z,15.83
2018-02-06T15:04:22.572Z,17.33
2018-02-06T15:06:50.034Z,18.17
2018-02-06T15:09:17.475Z,16.67
2018-02-06T15:11:44.924Z,17.13
2018-02-06T15:14:12.395Z,18.33
2018-02-06T15:16:39.848Z,17.17
2018-02-06T15:19:07.320Z,18.60
2018-02-06T15:21:34.772Z,18.53
2018-02-06T15:24:02.257Z,20.00
2018-02-06T15:26:29.825Z,20.53
2018-02-06T15:28:57.293Z,21.57
2018-02-06T15:31:24.741Z,19.03
2018-02-06T15:33:52.229Z,19.77
2018-02-06T15:36:19.693Z,21.60
2018-02-06T15:38:47.133Z,22.93
2018-02-06T15:41:14.601Z,20.83
2018-02-06T15:43:42.044Z,21.50
2018-02-06T15:46:09.506Z,21.47
2018-02-06T15:48:36.960Z,22.50
2018-02-06T15:51:04.445Z,23.37
2018-02-06T15:53:31.946Z,23.97
2018-02-06T15:55:59.432Z,25.03
2018-02-06T15:58:26.913Z,23.43
2018-02-06T16:00:54.375Z,24.43
2018-02-06T16:03:21.844Z,22.97
2018-02-06T16:05:49.311Z,25.03
2018-02-06T16:08:16.784Z,21.40
2018-02-06T16:10:44.235Z,22.23
2018-02-06T16:13:11.721Z,22.60
2018-02-06T16:15:39.174Z,23.77
2018-02-06T16:18:06.655Z,25.50
2018-02-06T16:20:34.123Z,24.23
2018-02-06T16:23:01.590Z,22.83
2018-02-06T16:25:29.038Z,23.70
2018-02-06T16:27:56.551Z,23.47
2018-02-06T16:30:24.029Z,23.13
2018-02-06T16:32:51.522Z,22.57
2018-02-06T16:35:18.983Z,21.83
2018-02-06T16:37:46.472Z,24.17
2018-02-06T16:40:13.954Z,25.23
2018-02-06T16:42:41.417Z,25.00
2018-02-06T16:45:08.887Z,23.47
2018-02-06T16:47:36.498Z,21.67
2018-02-06T16:50:03.995Z,24.30
2018-02-06T16:52:31.547Z,26.00
2018-02-06T16:54:59.021Z,22.47
2018-02-06T16:57:26.509Z,23.07
2018-02-06T16:59:53.965Z,24.80
2018-02-06T17:02:33.345Z,25.30
2018-02-06T17:05:00.809Z,23.57
2018-02-06T17:07:28.275Z,24.23
2018-02-06T17:09:55.731Z,24.30
2018-02-06T17:12:27.521Z,24.27
2018-02-06T17:14:54.972Z,23.93
2018-02-06T17:17:22.445Z,21.47
2018-02-06T17:19:49.932Z,24.70
2018-02-06T17:22:17.404Z,23.00
2018-02-06T17:24:44.871Z,23.33
2018-02-06T17:27:12.423Z,21.73
2018-02-06T17:29:39.887Z,22.77
2018-02-06T17:32:07.371Z,21.57
2018-02-06T17:34:34.857Z,20.93
2018-02-06T17:37:02.323Z,21.67
2018-02-06T17:39:29.804Z,22.97
2018-02-06T17:41:57.272Z,21.23
2018-02-06T17:44:24.725Z,21.97
2018-02-06T17:46:52.236Z,20.17
2018-02-06T17:49:19.784Z,21.93
2018-02-06T17:51:47.515Z,20.23
2018-02-06T17:54:14.974Z,19.17
2018-02-06T17:56:42.484Z,18.10
2018-02-06T17:59:09.936Z,18.33
2018-02-06T18:01:37.428Z,18.80
2018-02-06T18:04:04.910Z,19.30
2018-02-06T18:06:32.465Z,18.40
2018-02-06T18:08:59.982Z,18.43
2018-02-06T18:11:27.451Z,19.20
2018-02-06T18:13:54.916Z,21.00
2018-02-06T18:16:22.371Z,18.83
2018-02-06T18:18:49.908Z,19.80
2018-02-06T18:21:17.392Z,18.73
2018-02-06T18:23:44.864Z,17.17
2018-02-06T18:26:12.352Z,18.10
2018-02-06T18:28:39.808Z,19.87
2018-02-06T18:31:07.473Z,19.40
2018-02-06T18:33:34.929Z,18.40
2018-02-06T18:36:02.392Z,19.50
2018-02-06T18:38:29.886Z,19.83
2018-02-06T18:40:57.478Z,17.83
2018-02-06T18:43:25.037Z,18.80
2018-02-06T18:45:52.549Z,21.07
2018-02-06T18:48:20.030Z,21.03
2018-02-06T18:50:47.494Z,19.97
2018-02-06T18:53:14.939Z,18.20
2018-02-06T18:55:42.500Z,19.97
2018-02-06T18:58:09.955Z,20.73
2018-02-06T19:00:37.436Z,19.63
2018-02-06T19:03:04.902Z,18.70
2018-02-06T19:05:32.394Z,19.63
2018-02-06T19:07:59.951Z,21.53
2018-02-06T19:10:27.419Z,20.10
2018-02-06T19:12:54.904Z,21.03
2018-02-06T19:15:22.364Z,22.23
2018-02-06T19:17:49.886Z,22.03
2018-02-06T19:20:17.328Z,21.07
2018-02-06T19:22:44.795Z,18.90
2018-02-06T19:25:12.253Z,20.30
2018-02-06T19:27:39.896Z,21.93
2018-02-06T19:30:07.344Z,20.20
2018-02-06T19:32:34.817Z,20.53
2018-02-06T19:35:02.322Z,20.03
2018-02-06T19:37:29.781Z,20.17
2018-02-06T19:39:57.320Z,19.37
2018-02-06T19:42:24.838Z,17.80
2018-02-06T19:44:52.374Z,18.57
2018-02-06T19:47:19.829Z,18.87
2018-02-06T19:49:47.301Z,19.33
2018-02-06T19:52:14.763Z,19.80
2018-02-06T19:54:42.238Z,19.87
2018-02-06T19:57:09.692Z,19.43
2018-02-06T19:59:37.156Z,19.23
2018-02-06T20:02:04.634Z,19.53
2018-02-06T20:04:31.409Z,17.77
2018-02-06T20:06:58.868Z,18.37
2018-02-06T20:09:26.562Z,18.27
2018-02-06T20:11:54.141Z,20.13
2018-02-06T20:14:21.604Z,18.70
2018-02-06T20:16:49.146Z,18.87
2018-02-06T20:19:16.599Z,19.50
2018-02-06T20:21:44.115Z,17.73
2018-02-06T20:24:11.675Z,18.40
2018-02-06T20:26:39.191Z,18.17
2018-02-06T20:29:06.648Z,16.87
2018-02-06T20:31:34.249Z,18.47
2018-02-06T20:34:01.784Z,17.83
2018-02-06T20:36:29.270Z,17.40
2018-02-06T20:38:56.744Z,19.23
2018-02-06T20:41:24.208Z,17.20
2018-02-06T20:43:51.717Z,15.33
2018-02-06T20:46:19.222Z,16.27
2018-02-06T20:48:46.814Z,18.17
2018-02-06T20:51:14.310Z,16.03
2018-02-06T20:53:41.776Z,18.60
2018-02-06T20:56:09.235Z,19.03
2018-02-06T20:58:36.702Z,16.87
2018-02-06T21:01:04.262Z,17.03
2018-02-06T21:03:31.815Z,17.30
2018-02-06T21:05:59.275Z,17.23
2018-02-06T21:08:26.986Z,17.20
2018-02-06T21:10:54.526Z,18.87
2018-02-06T21:13:22.073Z,18.30
2018-02-06T21:15:49.547Z,17.43
2018-02-06T21:18:16.994Z,17.43
2018-02-06T21:20:44.467Z,15.70
2018-02-06T21:23:11.916Z,15.60
2018-02-06T21:25:39.395Z,16.37
2018-02-06T21:28:06.860Z,16.37
2018-02-06T21:30:34.426Z,16.47
2018-02-06T21:33:01.926Z,16.17
2018-02-06T21:35:29.368Z,16.60
2018-02-06T21:37:56.890Z,17.30
2018-02-06T21:40:24.452Z,16.13
2018-02-06T21:42:51.978Z,15.83
2018-02-06T21:45:19.490Z,16.13
2018-02-06T21:47:46.967Z,17.13
2018-02-06T21:50:14.446Z,16.40
2018-02-06T21:52:41.915Z,17.03
2018-02-06T21:55:09.389Z,18.10
2018-02-06T21:57:36.852Z,15.87
2018-02-06T22:00:04.320Z,16.73
2018-02-06T22:02:31.794Z,18.63
2018-02-06T22:04:59.281Z,17.13
2018-02-06T22:07:26.788Z,17.23
2018-02-06T22:09:54.273Z,18.67
2018-02-06T22:12:21.739Z,17.77
2018-02-06T22:14:49.231Z,17.30
2018-02-06T22:17:16.731Z,18.37
2018-02-06T22:19:44.242Z,15.77
2018-02-06T22:22:11.676Z,16.83
2018-02-06T22:24:39.125Z,17.60
2018-02-06T22:27:06.582Z,19.40
2018-02-06T22:29:34.032Z,18.63
2018-02-06T22:32:01.497Z,15.63
2018-02-06T22:34:29.014Z,17.27
2018-02-06T22:36:56.506Z,18.37
2018-02-06T22:39:23.973Z,17.03
2018-02-06T22:41:51.437Z,17.23
2018-02-06T22:44:18.877Z,18.63
2018-02-06T22:46:46.566Z,17.47
2018-02-06T22:49:14.012Z,18.10
2018-02-06T22:51:41.504Z,18.80
2018-02-06T22:54:08.988Z,18.20
2018-02-06T22:56:36.444Z,18.83
2018-02-06T22:59:03.914Z,17.43
2018-02-06T23:01:31.381Z,17.67
2018-02-06T23:04:01.827Z,17.23
2018-02-06T23:06:29.299Z,17.70
2018-02-06T23:08:56.760Z,18.57
2018-02-06T23:11:24.233Z,18.03
2018-02-06T23:13:51.703Z,17.60
2018-02-06T23:16:19.169Z,16.73
2018-02-06T23:18:46.670Z,19.03
2018-02-06T23:21:14.126Z,17.23
2018-02-06T23:23:41.603Z,18.67
2018-02-06T23:26:09.064Z,18.97
2018-02-06T23:28:36.531Z,20.70
2018-02-06T23:31:04.002Z,16.77
2018-02-06T23:33:31.454Z,18.33
2018-02-06T23:35:58.921Z,18.27
2018-02-06T23:38:26.399Z,18.83
2018-02-06T23:40:53.868Z,18.03
2018-02-06T23:43:21.336Z,18.57
2018-02-06T23:45:48.792Z,17.50
2018-02-06T23:48:16.286Z,17.37
2018-02-06T23:50:43.764Z,19.23
2018-02-06T23:53:11.266Z,18.43
2018-02-06T23:55:38.770Z,18.27
2018-02-06T23:58:06.247Z,14.97
